createdAt,value
2023-01-19T00:12:43.427Z,89.95
2023-01-19T00:27:49.626Z,62.92
2023-01-19T00:42:51.548Z,63.25
2023-01-19T00:57:53.472Z,93.88
2023-01-19T01:12:58.049Z,63.78
2023-01-19T01:28:03.225Z,57.75
2023-01-19T01:43:05.157Z,64.68
2023-01-19T01:58:09.166Z,74.18
2023-01-19T02:13:23.373Z,72.85
2023-01-19T02:28:26.398Z,71.72
2023-01-19T02:43:29.534Z,93.40
2023-01-19T02:58:45.386Z,98.93
2023-01-19T03:13:50.378Z,83.60
2023-01-19T03:28:53.091Z,61.05
2023-01-19T03:43:55.851Z,92.65
2023-01-19T03:58:58.213Z,87.43
2023-01-19T04:14:00.451Z,111.78
2023-01-19T04:29:02.380Z,112.43
2023-01-19T04:44:04.553Z,112.93
2023-01-19T04:59:06.680Z,89.15
2023-01-19T05:14:08.634Z,180.63
2023-01-19T05:29:10.652Z,136.35
2023-01-19T05:44:13.221Z,117.25
2023-01-19T05:59:15.602Z,91.35
2023-01-19T06:14:17.503Z,92.82
2023-01-19T06:29:19.493Z,83.57
2023-01-19T06:44:21.392Z,95.97
2023-01-19T06:59:23.290Z,108.95
2023-01-19T07:14:25.978Z,88.72
2023-01-19T07:29:27.863Z,86.10
2023-01-19T07:44:29.781Z,119.22
2023-01-19T07:59:32.564Z,115.18
2023-01-19T08:14:34.561Z,113.70
2023-01-19T08:29:36.654Z,77.88
2023-01-19T08:44:46.634Z,82.88
2023-01-19T08:59:51.769Z,88.57
2023-01-19T09:14:53.753Z,89.50
2023-01-19T09:29:55.745Z,79.35
2023-01-19T09:44:57.627Z,45.65
2023-01-19T09:59:59.907Z,42.15
2023-01-19T10:15:04.643Z,36.83
2023-01-19T10:30:10.441Z,36.08
2023-01-19T10:45:21.348Z,36.80
2023-01-19T11:00:37.995Z,39.08
2023-01-19T11:15:55.052Z,34.67
2023-01-19T11:31:12.041Z,36.70
2023-01-19T11:46:14.750Z,39.90
2023-01-19T12:01:25.062Z,56.72
2023-01-19T12:16:33.207Z,67.13
2023-01-19T12:31:35.389Z,68.15
2023-01-19T12:46:38.619Z,68.25
2023-01-19T13:01:40.644Z,67.30
2023-01-19T13:16:42.536Z,74.05
2023-01-19T13:31:45.011Z,73.68
2023-01-19T13:46:48.857Z,58.50
2023-01-19T14:01:51.682Z,52.58
2023-01-19T14:16:54.787Z,58.97
2023-01-19T14:32:16.417Z,56.70
2023-01-19T14:47:29.819Z,59.08
2023-01-19T15:02:31.821Z,100.18
2023-01-19T15:17:34.367Z,60.72
2023-01-19T15:32:36.390Z,58.83
2023-01-19T15:47:38.299Z,62.30
2023-01-19T16:02:40.284Z,59.17
2023-01-19T16:17:42.843Z,86.95
2023-01-19T16:32:45.577Z,90.00
2023-01-19T16:47:50.799Z,98.53
2023-01-19T17:02:52.760Z,105.65
2023-01-19T17:17:54.699Z,92.63
2023-01-19T17:32:56.646Z,105.97
2023-01-19T17:47:58.508Z,87.80
2023-01-19T18:03:02.484Z,85.85
2023-01-19T18:18:04.583Z,87.90
2023-01-19T18:33:06.581Z,94.93
2023-01-19T18:48:09.719Z,87.40
2023-01-19T19:03:11.718Z,88.18
2023-01-19T19:18:14.267Z,92.97
2023-01-19T19:33:16.262Z,89.68
2023-01-19T19:48:18.198Z,86.38
2023-01-19T20:03:36.379Z,78.25
2023-01-19T20:18:45.137Z,78.75
2023-01-19T20:33:49.018Z,68.07
2023-01-19T20:48:53.819Z,71.07
2023-01-19T21:03:56.658Z,58.28
2023-01-19T21:18:59.017Z,58.75
2023-01-19T21:34:00.971Z,56.08
2023-01-19T21:49:05.539Z,61.75
2023-01-19T22:04:07.687Z,70.80
2023-01-19T22:19:14.398Z,67.60
2023-01-19T22:34:17.360Z,70.50
2023-01-19T22:49:19.427Z,71.65
2023-01-19T23:04:21.426Z,72.22
2023-01-19T23:19:23.371Z,68.95
2023-01-19T23:34:25.323Z,65.60
2023-01-19T23:49:27.521Z,59.20
